createdAt,value
2023-02-11T00:04:23.663Z,26.50
2023-02-11T00:09:26.363Z,24.30
2023-02-11T00:14:29.170Z,22.00
2023-02-11T00:19:31.966Z,19.30
2023-02-11T00:24:36.448Z,23.20
2023-02-11T00:29:39.557Z,23.40
2023-02-11T00:34:42.312Z,25.90
2023-02-11T00:39:45.024Z,26.60
2023-02-11T00:44:47.759Z,19.20
2023-02-11T00:49:50.509Z,21.30
2023-02-11T00:54:53.235Z,28.00
2023-02-11T00:59:56.013Z,24.20
2023-02-11T01:05:00.137Z,23.40
2023-02-11T01:10:04.492Z,21.80
2023-02-11T01:15:09.163Z,23.20
2023-02-11T01:20:17.253Z,25.00
2023-02-11T01:25:20.148Z,21.60
2023-02-11T01:30:23.150Z,19.20
2023-02-11T01:35:25.966Z,24.50
2023-02-11T01:40:28.764Z,26.40
2023-02-11T01:45:47.283Z,21.50
2023-02-11T01:50:55.047Z,21.50
2023-02-11T01:56:17.405Z,23.80
2023-02-11T02:01:26.863Z,23.10
2023-02-11T02:06:35.713Z,28.50
2023-02-11T02:11:38.508Z,26.90
2023-02-11T02:16:41.537Z,25.60
2023-02-11T02:22:25.173Z,27.70
2023-02-11T02:27:56.425Z,29.10
2023-02-11T02:33:23.422Z,24.10
2023-02-11T02:38:46.589Z,26.90
2023-02-11T02:43:51.492Z,27.30
2023-02-11T02:48:55.756Z,25.10
2023-02-11T02:54:05.549Z,25.50
2023-02-11T02:59:23.639Z,26.00
2023-02-11T03:04:38.058Z,24.00
2023-02-11T03:09:48.499Z,22.00
2023-02-11T03:14:52.173Z,24.30
2023-02-11T03:19:57.356Z,30.40
2023-02-11T03:25:02.005Z,24.90
2023-02-11T03:30:18.863Z,21.50
2023-02-11T03:35:32.986Z,24.70
2023-02-11T03:40:38.435Z,22.40
2023-02-11T03:45:41.474Z,24.10
2023-02-11T03:50:47.310Z,22.80
2023-02-11T03:55:52.127Z,27.80
2023-02-11T04:00:55.133Z,22.40
2023-02-11T04:05:57.975Z,22.80
2023-02-11T04:11:00.774Z,22.00
2023-02-11T04:16:03.697Z,21.00
2023-02-11T04:21:06.583Z,21.30
2023-02-11T04:26:09.294Z,26.80
2023-02-11T04:31:13.007Z,18.40
2023-02-11T04:36:15.895Z,21.10
2023-02-11T04:41:18.630Z,23.20
2023-02-11T04:46:21.479Z,23.80
2023-02-11T04:51:24.543Z,23.40
2023-02-11T04:56:27.247Z,22.90
2023-02-11T05:01:30.158Z,24.00
2023-02-11T05:06:33.062Z,20.30
2023-02-11T05:11:36.948Z,23.40
2023-02-11T05:16:39.688Z,22.70
2023-02-11T05:21:53.140Z,25.20
2023-02-11T05:27:00.157Z,23.90
2023-02-11T05:37:05.696Z,31.70
2023-02-11T05:42:08.706Z,26.10
2023-02-11T05:47:11.509Z,25.60
2023-02-11T05:52:14.511Z,27.10
2023-02-11T05:57:18.033Z,29.00
2023-02-11T06:02:20.811Z,24.20
2023-02-11T06:07:23.735Z,26.80
2023-02-11T06:12:27.356Z,25.40
2023-02-11T06:17:33.760Z,30.20
2023-02-11T06:22:36.643Z,20.00
2023-02-11T06:27:39.767Z,31.70
2023-02-11T06:32:44.921Z,27.70
2023-02-11T06:37:49.763Z,36.00
2023-02-11T06:42:52.752Z,28.80
2023-02-11T06:47:55.675Z,24.80
2023-02-11T06:53:01.546Z,25.50
2023-02-11T06:58:04.277Z,27.70
2023-02-11T07:03:07.087Z,30.50
2023-02-11T07:08:10.050Z,34.70
2023-02-11T07:13:12.827Z,28.10
2023-02-11T07:18:15.778Z,35.70
2023-02-11T07:23:18.473Z,27.00
2023-02-11T07:28:21.213Z,33.30
2023-02-11T07:33:24.041Z,28.40
2023-02-11T07:38:27.468Z,27.10
2023-02-11T07:43:31.582Z,35.00
2023-02-11T07:48:34.842Z,30.70
2023-02-11T07:58:44.240Z,36.10
2023-02-11T08:03:46.978Z,30.20
2023-02-11T08:08:50.221Z,31.40
2023-02-11T08:24:03.233Z,30.30
2023-02-11T08:29:10.226Z,39.00
2023-02-11T08:34:14.559Z,32.10
2023-02-11T08:39:20.770Z,29.20
2023-02-11T08:44:25.163Z,29.10
2023-02-11T08:49:28.185Z,24.30
2023-02-11T08:54:31.581Z,27.90
2023-02-11T08:59:34.654Z,25.50
2023-02-11T09:04:37.360Z,26.60
2023-02-11T09:09:40.071Z,27.70
2023-02-11T09:14:43.138Z,20.50
2023-02-11T09:19:46.013Z,22.30
2023-02-11T09:24:48.962Z,22.20
2023-02-11T09:29:51.886Z,29.70
2023-02-11T09:34:54.594Z,25.00
2023-02-11T09:39:57.292Z,27.20
2023-02-11T09:45:03.916Z,26.80
2023-02-11T09:50:18.484Z,25.30
2023-02-11T09:55:39.166Z,23.90
2023-02-11T10:01:02.608Z,26.50
2023-02-11T10:06:28.437Z,21.10
2023-02-11T10:11:48.956Z,22.50
2023-02-11T10:17:31.900Z,19.10
2023-02-11T10:22:45.728Z,20.80
2023-02-11T10:27:49.713Z,26.30
2023-02-11T10:32:59.858Z,21.30
2023-02-11T10:38:02.764Z,23.30
2023-02-11T10:43:11.634Z,19.40
2023-02-11T10:48:36.480Z,20.20
2023-02-11T10:53:39.928Z,20.80
2023-02-11T10:58:59.081Z,18.40
2023-02-11T11:04:01.933Z,19.10
2023-02-11T11:09:04.746Z,18.40
2023-02-11T11:14:20.426Z,18.40
2023-02-11T11:19:25.481Z,17.90
2023-02-11T11:24:44.161Z,17.70
2023-02-11T11:29:50.334Z,13.90
2023-02-11T11:35:00.422Z,15.50
2023-02-11T11:40:09.562Z,16.00
2023-02-11T11:45:15.331Z,16.80
2023-02-11T11:50:34.295Z,16.50
2023-02-11T11:55:43.616Z,15.20
2023-02-11T12:01:01.986Z,14.30
2023-02-11T12:06:39.257Z,17.70
2023-02-11T12:11:58.316Z,15.00
2023-02-11T12:17:17.465Z,16.10
2023-02-11T12:22:30.140Z,15.70
2023-02-11T12:27:45.227Z,12.20
2023-02-11T12:33:25.152Z,13.10
2023-02-11T12:38:32.634Z,18.50
2023-02-11T12:43:40.828Z,12.50
2023-02-11T12:49:01.959Z,15.50
2023-02-11T12:54:11.049Z,15.30
2023-02-11T12:59:30.530Z,15.10
2023-02-11T13:04:42.132Z,13.10
2023-02-11T13:09:51.523Z,14.00
2023-02-11T13:14:58.666Z,13.90
2023-02-11T13:20:15.029Z,13.30
2023-02-11T13:25:43.178Z,13.00
2023-02-11T13:30:52.023Z,15.80
2023-02-11T13:36:04.754Z,11.90
2023-02-11T13:41:42.730Z,12.40
2023-02-11T13:47:06.070Z,11.70
2023-02-11T13:52:25.829Z,9.00
2023-02-11T13:57:34.878Z,11.10
2023-02-11T14:02:58.470Z,8.70
2023-02-11T14:08:26.429Z,9.10
2023-02-11T14:13:30.841Z,7.50
2023-02-11T14:18:50.004Z,9.00
2023-02-11T14:23:56.213Z,12.00
2023-02-11T14:29:21.097Z,9.00
2023-02-11T14:34:49.740Z,12.80
2023-02-11T14:40:23.976Z,14.40
2023-02-11T14:45:29.238Z,15.50
2023-02-11T14:50:38.768Z,12.80
2023-02-11T14:55:44.609Z,8.80
2023-02-11T15:01:09.261Z,10.40
2023-02-11T15:06:19.866Z,13.60
2023-02-11T15:11:25.422Z,10.50
2023-02-11T15:16:29.151Z,15.20
2023-02-11T15:21:34.653Z,15.80
2023-02-11T15:26:37.422Z,15.80
2023-02-11T15:31:40.245Z,16.50
2023-02-11T15:36:43.348Z,28.20
2023-02-11T15:41:46.347Z,35.10
2023-02-11T15:46:49.144Z,24.20
2023-02-11T15:51:53.956Z,36.30
2023-02-11T15:57:04.581Z,21.60
2023-02-11T16:02:17.906Z,35.60
2023-02-11T16:07:49.924Z,12.20
2023-02-11T16:12:52.820Z,9.50
2023-02-11T16:17:55.662Z,20.40
2023-02-11T16:22:58.809Z,28.30
2023-02-11T16:33:05.560Z,16.50
2023-02-11T16:38:08.345Z,12.10
2023-02-11T16:43:11.143Z,22.00
2023-02-11T16:48:18.683Z,18.10
2023-02-11T16:53:24.591Z,26.50
2023-02-11T16:58:27.435Z,17.20
2023-02-11T17:03:31.566Z,22.20
2023-02-11T17:08:34.265Z,21.50
2023-02-11T17:13:37.180Z,8.00
2023-02-11T17:18:39.913Z,13.10
2023-02-11T17:23:43.035Z,18.40
2023-02-11T17:28:47.614Z,6.90
2023-02-11T17:33:50.540Z,7.00
2023-02-11T17:38:55.151Z,7.60
2023-02-11T17:43:59.075Z,7.00
2023-02-11T17:49:02.800Z,6.80
2023-02-11T17:54:09.091Z,10.90
2023-02-11T17:59:13.497Z,11.70
2023-02-11T18:04:18.442Z,8.60
2023-02-11T18:09:21.403Z,8.20
2023-02-11T18:14:24.714Z,5.50
2023-02-11T18:24:33.418Z,8.30
2023-02-11T18:29:36.281Z,12.10
2023-02-11T18:34:40.871Z,5.50
2023-02-11T18:39:43.729Z,5.70
2023-02-11T18:44:46.635Z,3.40
2023-02-11T18:49:49.328Z,17.00
2023-02-11T18:54:52.544Z,4.20
2023-02-11T18:59:55.299Z,4.50
2023-02-11T19:04:58.226Z,14.10
2023-02-11T19:10:01.027Z,8.60
2023-02-11T19:15:04.452Z,19.60
2023-02-11T19:20:08.410Z,23.90
2023-02-11T19:25:12.239Z,4.10
2023-02-11T19:30:15.119Z,13.30
2023-02-11T19:35:19.429Z,7.70
2023-02-11T19:40:22.268Z,7.90
2023-02-11T19:45:26.593Z,4.30
2023-02-11T19:50:29.395Z,6.70
2023-02-11T19:55:34.864Z,11.50
2023-02-11T20:00:37.590Z,8.00
2023-02-11T20:05:42.409Z,29.50
2023-02-11T20:10:45.217Z,44.50
2023-02-11T20:15:48.081Z,34.40
2023-02-11T20:20:50.907Z,29.10
2023-02-11T20:25:54.311Z,20.20
2023-02-11T20:30:58.493Z,8.80
2023-02-11T20:36:05.436Z,17.50
2023-02-11T20:41:20.441Z,22.00
2023-02-11T20:46:25.987Z,10.40
2023-02-11T20:51:31.628Z,8.20
2023-02-11T20:56:37.022Z,8.30
2023-02-11T21:01:43.568Z,6.70
2023-02-11T21:06:49.168Z,6.40
2023-02-11T21:11:52.668Z,30.10
2023-02-11T21:16:56.066Z,46.80
2023-02-11T21:22:00.802Z,27.00
2023-02-11T21:27:03.990Z,35.50
2023-02-11T21:32:06.823Z,23.80
2023-02-11T21:37:09.635Z,23.30
2023-02-11T21:42:12.377Z,15.10
2023-02-11T21:47:15.104Z,28.60
2023-02-11T21:52:17.893Z,8.40
2023-02-11T21:57:20.704Z,12.50
2023-02-11T22:02:23.477Z,8.90
2023-02-11T22:07:28.181Z,12.70
2023-02-11T22:12:31.000Z,22.90
2023-02-11T22:17:34.350Z,32.40
2023-02-11T22:22:37.258Z,32.00
2023-02-11T22:27:40.050Z,15.90
2023-02-11T22:32:42.746Z,19.40
2023-02-11T22:37:45.561Z,11.20
2023-02-11T22:42:48.369Z,13.60
2023-02-11T22:47:51.135Z,7.50
2023-02-11T22:52:53.848Z,7.50
2023-02-11T22:57:56.561Z,36.30
2023-02-11T23:02:59.382Z,52.90
2023-02-11T23:08:02.253Z,11.50
2023-02-11T23:13:06.480Z,4.30
2023-02-11T23:18:09.924Z,4.00
2023-02-11T23:23:12.706Z,3.00
2023-02-11T23:28:15.497Z,5.90
2023-02-11T23:33:18.509Z,4.00
2023-02-11T23:38:21.224Z,8.60
2023-02-11T23:43:24.441Z,10.50
2023-02-11T23:53:30.542Z,2.00
2023-02-11T23:58:33.219Z,4.90
